Sea Success — VRS4325 — position and weather

sailwx.info

Track history (hours):
 
Tides and Currents Weather Stations Pressure Air Temp Water Temp Dewpoint Dewpoint Depression Visibility Wind Speed Wind Dir Waves Ship Positions

Sea Success

Last reported at 2016-May-27 08:33 UTC. Time now 2016-May-27 10:19 UTC.
Position N 22°17' E 114°10'.

Length 27 m.

Type: High speed craft. MMSI: 477995071.

Date/timePositionNaut miles runAvg speedWind from/ knotsBaromVisibWave heightAir tempDewpointWater temp
2016-May-27 08:33N 22°17' E 114°10'1 1.0
2016-May-27 07:33N 22°18' E 114°09'0 0.0
2016-May-27 06:33N 22°18' E 114°09'0 0.0
2016-May-27 05:32N 22°18' E 114°09'0 0.0
2016-May-27 04:33N 22°18' E 114°09'0 0.0
2016-May-27 03:33N 22°18' E 114°09'0 0.0
2016-May-27 02:33N 22°18' E 114°09'1 0.5
2016-May-27 01:33N 22°19' E 114°09'7 4.7
2016-May-27 00:09N 22°17' E 114°02'711.5
2016-May-26 23:33N 22°17' E 114°10'5 4.6
2016-May-26 22:31N 22°17' E 114°04'1 0.2
2016-May-26 13:30N 22°17' E 114°06'3 1.8
2016-May-26 11:33N 22°17' E 114°10'3 2.3
2016-May-26 10:13N 22°17' E 114°06'3 4.2
2016-May-26 09:34N 22°18' E 114°09'1 0.7
2016-May-26 08:33N 22°18' E 114°09'7 2.8
2016-May-26 06:09N 22°17' E 114°02'711.5
2016-May-26 05:33N 22°17' E 114°10'5 2.1
2016-May-26 03:04N 22°17' E 114°04'510.0
2016-May-26 02:33N 22°17' E 114°10'4 2.6
2016-May-26 01:12N 22°17' E 114°06'4 2.2
2016-May-25 23:33N 22°17' E 114°10'5 4.6
2016-May-25 22:30N 22°17' E 114°04'1 0.1
2016-May-25 13:30N 22°17' E 114°05'4 2.2
2016-May-25 11:34N 22°17' E 114°10'4 2.8
2016-May-25 10:14N 22°17' E 114°06'4 5.5
2016-May-25 09:33N 22°17' E 114°10'2 2.0
2016-May-25 08:33N 22°19' E 114°09'4 3.5
2016-May-25 07:30N 22°17' E 114°06'0 0.0
2016-May-25 04:30N 22°17' E 114°06'1 0.2
2016-May-25 01:32N 22°17' E 114°05'4 2.2
2016-May-24 23:34N 22°17' E 114°10'4 4.0
2016-May-24 22:32N 22°17' E 114°05'0 0.0
2016-May-24 13:33N 22°17' E 114°05'4 2.2
2016-May-24 11:34N 22°17' E 114°10'5 3.9
2016-May-24 10:20N 22°17' E 114°04'5 6.2
2016-May-24 09:33N 22°19' E 114°09'1 1.0
2016-May-24 08:34N 22°18' E 114°09'4 1.7
2016-May-24 06:04N 22°17' E 114°05'4 8.6
2016-May-24 05:33N 22°17' E 114°10'0 0.0
2016-May-24 02:34N 22°17' E 114°10'7 6.1
2016-May-24 01:25N 22°16' E 114°02'7 3.8
2016-May-23 23:33N 22°17' E 114°10'7 6.3
2016-May-23 22:28N 22°17' E 114°02'3 0.3
2016-May-23 13:31N 22°17' E 114°05'4 2.2
2016-May-23 11:33N 22°17' E 114°10'7 5.8
2016-May-23 10:22N 22°17' E 114°02'7 8.4
2016-May-23 09:33N 22°17' E 114°10'1 1.1
2016-May-23 08:33N 22°18' E 114°09'7 3.3
2016-May-23 06:18N 22°16' E 114°02'7 9.9
2016-May-23 05:33N 22°17' E 114°10'0 0.0
2016-May-23 02:33N 22°17' E 114°10'6 5.0
2016-May-23 01:17N 22°16' E 114°03'6 3.7
2016-May-22 23:33N 22°17' E 114°10'4 3.5
2016-May-22 22:29N 22°17' E 114°06'1 1.1
2016-May-22 21:10N 22°17' E 114°04'5 8.5
2016-May-22 20:33N 22°18' E 114°09'0 0.0
2016-May-22 19:33N 22°18' E 114°09'0 0.0
2016-May-22 18:34N 22°18' E 114°09'0 0.0
2016-May-22 17:33N 22°18' E 114°09'0 0.0
2016-May-22 16:33N 22°18' E 114°09'0 0.0
2016-May-22 15:33N 22°18' E 114°09'0 0.0
2016-May-22 14:33N 22°18' E 114°09'2 2.1
2016-May-22 13:34N 22°17' E 114°07'1 1.0
2016-May-22 12:33N 22°17' E 114°06'3 1.6
2016-May-22 10:33N 22°17' E 114°10'7 7.1
2016-May-22 09:33N 22°17' E 114°02'7 6.9
2016-May-22 08:33N 22°17' E 114°09'0 0.0
2016-May-22 07:33N 22°17' E 114°09'0 0.0
2016-May-22 06:33N 22°17' E 114°09'0 0.0
2016-May-22 05:33N 22°17' E 114°09'7 6.8
2016-May-22 04:33N 22°17' E 114°02'6 6.4
2016-May-22 03:34N 22°18' E 114°09'2 1.9
2016-May-22 02:33N 22°17' E 114°07'3 2.6
2016-May-22 01:34N 22°18' E 114°09'0 0.0
2016-May-22 00:34N 22°18' E 114°09'1 1.0
2016-May-21 23:33N 22°19' E 114°09'4 0.4
2016-May-21 13:32N 22°17' E 114°05'4 2.2
2016-May-21 11:33N 22°17' E 114°10'3 2.6
2016-May-21 10:14N 22°17' E 114°06'3 2.1
2016-May-21 08:33N 22°17' E 114°10'7 3.1
2016-May-21 06:17N 22°17' E 114°02'7 9.8
2016-May-21 05:33N 22°17' E 114°10'0 0.0
2016-May-21 02:33N 22°17' E 114°10'4 3.1
2016-May-21 01:13N 22°17' E 114°05'4 2.5
2016-May-20 23:33N 22°17' E 114°10'4 3.6
2016-May-20 22:30N 22°17' E 114°06'1 0.1
2016-May-20 13:32N 22°17' E 114°05'4 2.3
2016-May-20 11:33N 22°17' E 114°10'4 2.9
2016-May-20 10:16N 22°17' E 114°06'4 5.4
2016-May-20 09:33N 22°19' E 114°09'1 1.3
2016-May-20 08:33N 22°18' E 114°09'4 1.8
2016-May-20 06:04N 22°17' E 114°05'5 9.3
2016-May-20 05:34N 22°17' E 114°10'0 0.0
2016-May-20 02:33N 22°17' E 114°10'3 2.3
2016-May-20 01:12N 22°17' E 114°06'3 1.9
2016-May-19 23:33N 22°17' E 114°10'3 3.0
2016-May-19 22:23N 22°17' E 114°06'0 0.0
2016-May-19 13:20N 22°17' E 114°06'1 0.7
2016-May-19 11:33N 22°17' E 114°08'0 0.0
2016-May-19 10:31N 22°17' E 114°08'2 2.0
2016-May-19 09:29N 22°18' E 114°09'0 0.4
2016-May-19 08:33N 22°18' E 114°09'7 2.7
2016-May-19 06:09N 22°17' E 114°02'711.3
2016-May-19 05:33N 22°17' E 114°10'5 2.1
2016-May-19 03:04N 22°17' E 114°04'5 9.8
2016-May-19 02:33N 22°17' E 114°10'7 5.9
2016-May-19 01:18N 22°16' E 114°02'7 4.2
2016-May-18 23:33N 22°17' E 114°10'5 4.6
2016-May-18 22:34N 22°17' E 114°05'1 0.1
2016-May-18 13:30N 22°17' E 114°06'4 1.9
2016-May-18 11:34N 22°17' E 114°10'7 7.1
2016-May-18 10:33N 22°17' E 114°02'7 3.6
2016-May-18 08:34N 22°17' E 114°10'0 0.1
2016-May-18 07:33N 22°17' E 114°09'0 0.0
2016-May-18 06:33N 22°17' E 114°09'0 0.0
2016-May-18 05:33N 22°17' E 114°09'0 0.0
2016-May-18 04:34N 22°17' E 114°09'1 0.9
2016-May-18 03:34N 22°18' E 114°09'1 0.9
2016-May-18 02:33N 22°17' E 114°10'4 2.7
2016-May-18 01:12N 22°17' E 114°06'4 2.2
2016-May-17 23:33N 22°17' E 114°10'5 3.8
2016-May-17 22:20N 22°17' E 114°05'0 0.0
2016-May-17 13:31N 22°17' E 114°05'4 2.2
2016-May-17 11:33N 22°17' E 114°10'3 2.3
2016-May-17 10:14N 22°17' E 114°06'3 4.6
2016-May-17 09:33N 22°17' E 114°10'1 0.7
2016-May-17 08:33N 22°18' E 114°09'  
Track history (hours):
 
Tides and Currents Weather Stations Pressure Air Temp Water Temp Dewpoint Dewpoint Depression Visibility Wind Speed Wind Dir Waves Ship Positions

Sea Success

Last reported at 2016-May-27 08:33 UTC. Time now 2016-May-27 10:19 UTC.
Position N 22°17' E 114°10'.

Length 27 m.

Type: High speed craft. MMSI: 477995071.

Date/timePositionNaut miles runAvg speedWind from/ knotsBaromVisibWave heightAir tempDewpointWater temp
2016-May-27 08:33N 22°17' E 114°10'1 1.0
2016-May-27 07:33N 22°18' E 114°09'0 0.0
2016-May-27 06:33N 22°18' E 114°09'0 0.0
2016-May-27 05:32N 22°18' E 114°09'0 0.0
2016-May-27 04:33N 22°18' E 114°09'0 0.0
2016-May-27 03:33N 22°18' E 114°09'0 0.0
2016-May-27 02:33N 22°18' E 114°09'1 0.5
2016-May-27 01:33N 22°19' E 114°09'7 4.7
2016-May-27 00:09N 22°17' E 114°02'711.5
2016-May-26 23:33N 22°17' E 114°10'5 4.6
2016-May-26 22:31N 22°17' E 114°04'1 0.2
2016-May-26 13:30N 22°17' E 114°06'3 1.8
2016-May-26 11:33N 22°17' E 114°10'3 2.3
2016-May-26 10:13N 22°17' E 114°06'3 4.2
2016-May-26 09:34N 22°18' E 114°09'1 0.7
2016-May-26 08:33N 22°18' E 114°09'7 2.8
2016-May-26 06:09N 22°17' E 114°02'711.5
2016-May-26 05:33N 22°17' E 114°10'5 2.1
2016-May-26 03:04N 22°17' E 114°04'510.0
2016-May-26 02:33N 22°17' E 114°10'4 2.6
2016-May-26 01:12N 22°17' E 114°06'4 2.2
2016-May-25 23:33N 22°17' E 114°10'5 4.6
2016-May-25 22:30N 22°17' E 114°04'1 0.1
2016-May-25 13:30N 22°17' E 114°05'4 2.2
2016-May-25 11:34N 22°17' E 114°10'4 2.8
2016-May-25 10:14N 22°17' E 114°06'4 5.5
2016-May-25 09:33N 22°17' E 114°10'2 2.0
2016-May-25 08:33N 22°19' E 114°09'4 3.5
2016-May-25 07:30N 22°17' E 114°06'0 0.0
2016-May-25 04:30N 22°17' E 114°06'1 0.2
2016-May-25 01:32N 22°17' E 114°05'4 2.2
2016-May-24 23:34N 22°17' E 114°10'4 4.0
2016-May-24 22:32N 22°17' E 114°05'0 0.0
2016-May-24 13:33N 22°17' E 114°05'4 2.2
2016-May-24 11:34N 22°17' E 114°10'5 3.9
2016-May-24 10:20N 22°17' E 114°04'5 6.2
2016-May-24 09:33N 22°19' E 114°09'1 1.0
2016-May-24 08:34N 22°18' E 114°09'4 1.7
2016-May-24 06:04N 22°17' E 114°05'4 8.6
2016-May-24 05:33N 22°17' E 114°10'0 0.0
2016-May-24 02:34N 22°17' E 114°10'7 6.1
2016-May-24 01:25N 22°16' E 114°02'7 3.8
2016-May-23 23:33N 22°17' E 114°10'7 6.3
2016-May-23 22:28N 22°17' E 114°02'3 0.3
2016-May-23 13:31N 22°17' E 114°05'4 2.2
2016-May-23 11:33N 22°17' E 114°10'7 5.8
2016-May-23 10:22N 22°17' E 114°02'7 8.4
2016-May-23 09:33N 22°17' E 114°10'1 1.1
2016-May-23 08:33N 22°18' E 114°09'7 3.3
2016-May-23 06:18N 22°16' E 114°02'7 9.9
2016-May-23 05:33N 22°17' E 114°10'0 0.0
2016-May-23 02:33N 22°17' E 114°10'6 5.0
2016-May-23 01:17N 22°16' E 114°03'6 3.7
2016-May-22 23:33N 22°17' E 114°10'4 3.5
2016-May-22 22:29N 22°17' E 114°06'1 1.1
2016-May-22 21:10N 22°17' E 114°04'5 8.5
2016-May-22 20:33N 22°18' E 114°09'0 0.0
2016-May-22 19:33N 22°18' E 114°09'0 0.0
2016-May-22 18:34N 22°18' E 114°09'0 0.0
2016-May-22 17:33N 22°18' E 114°09'0 0.0
2016-May-22 16:33N 22°18' E 114°09'0 0.0
2016-May-22 15:33N 22°18' E 114°09'0 0.0
2016-May-22 14:33N 22°18' E 114°09'2 2.1
2016-May-22 13:34N 22°17' E 114°07'1 1.0
2016-May-22 12:33N 22°17' E 114°06'3 1.6
2016-May-22 10:33N 22°17' E 114°10'7 7.1
2016-May-22 09:33N 22°17' E 114°02'7 6.9
2016-May-22 08:33N 22°17' E 114°09'0 0.0
2016-May-22 07:33N 22°17' E 114°09'0 0.0
2016-May-22 06:33N 22°17' E 114°09'0 0.0
2016-May-22 05:33N 22°17' E 114°09'7 6.8
2016-May-22 04:33N 22°17' E 114°02'6 6.4
2016-May-22 03:34N 22°18' E 114°09'2 1.9
2016-May-22 02:33N 22°17' E 114°07'3 2.6
2016-May-22 01:34N 22°18' E 114°09'0 0.0
2016-May-22 00:34N 22°18' E 114°09'1 1.0
2016-May-21 23:33N 22°19' E 114°09'4 0.4
2016-May-21 13:32N 22°17' E 114°05'4 2.2
2016-May-21 11:33N 22°17' E 114°10'3 2.6
2016-May-21 10:14N 22°17' E 114°06'3 2.1
2016-May-21 08:33N 22°17' E 114°10'7 3.1
2016-May-21 06:17N 22°17' E 114°02'7 9.8
2016-May-21 05:33N 22°17' E 114°10'0 0.0
2016-May-21 02:33N 22°17' E 114°10'4 3.1
2016-May-21 01:13N 22°17' E 114°05'4 2.5
2016-May-20 23:33N 22°17' E 114°10'4 3.6
2016-May-20 22:30N 22°17' E 114°06'1 0.1
2016-May-20 13:32N 22°17' E 114°05'4 2.3
2016-May-20 11:33N 22°17' E 114°10'4 2.9
2016-May-20 10:16N 22°17' E 114°06'4 5.4
2016-May-20 09:33N 22°19' E 114°09'1 1.3
2016-May-20 08:33N 22°18' E 114°09'4 1.8
2016-May-20 06:04N 22°17' E 114°05'5 9.3
2016-May-20 05:34N 22°17' E 114°10'0 0.0
2016-May-20 02:33N 22°17' E 114°10'3 2.3
2016-May-20 01:12N 22°17' E 114°06'3 1.9
2016-May-19 23:33N 22°17' E 114°10'3 3.0
2016-May-19 22:23N 22°17' E 114°06'0 0.0
2016-May-19 13:20N 22°17' E 114°06'1 0.7
2016-May-19 11:33N 22°17' E 114°08'0 0.0
2016-May-19 10:31N 22°17' E 114°08'2 2.0
2016-May-19 09:29N 22°18' E 114°09'0 0.4
2016-May-19 08:33N 22°18' E 114°09'7 2.7
2016-May-19 06:09N 22°17' E 114°02'711.3
2016-May-19 05:33N 22°17' E 114°10'5 2.1
2016-May-19 03:04N 22°17' E 114°04'5 9.8
2016-May-19 02:33N 22°17' E 114°10'7 5.9
2016-May-19 01:18N 22°16' E 114°02'7 4.2
2016-May-18 23:33N 22°17' E 114°10'5 4.6
2016-May-18 22:34N 22°17' E 114°05'1 0.1
2016-May-18 13:30N 22°17' E 114°06'4 1.9
2016-May-18 11:34N 22°17' E 114°10'7 7.1
2016-May-18 10:33N 22°17' E 114°02'7 3.6
2016-May-18 08:34N 22°17' E 114°10'0 0.1
2016-May-18 07:33N 22°17' E 114°09'0 0.0
2016-May-18 06:33N 22°17' E 114°09'0 0.0
2016-May-18 05:33N 22°17' E 114°09'0 0.0
2016-May-18 04:34N 22°17' E 114°09'1 0.9
2016-May-18 03:34N 22°18' E 114°09'1 0.9
2016-May-18 02:33N 22°17' E 114°10'4 2.7
2016-May-18 01:12N 22°17' E 114°06'4 2.2
2016-May-17 23:33N 22°17' E 114°10'5 3.8
2016-May-17 22:20N 22°17' E 114°05'0 0.0
2016-May-17 13:31N 22°17' E 114°05'4 2.2
2016-May-17 11:33N 22°17' E 114°10'3 2.3
2016-May-17 10:14N 22°17' E 114°06'3 4.6
2016-May-17 09:33N 22°17' E 114°10'1 0.7
2016-May-17 08:33N 22°18' E 114°09'  

Dump ship's entire track history